createdAt,value
2017-04-21T00:00:20.451Z,8.48
2017-04-21T00:01:00.904Z,8.52
2017-04-21T00:01:41.393Z,8.55
2017-04-21T00:02:21.862Z,8.47
2017-04-21T00:03:02.403Z,8.59
2017-04-21T00:03:42.897Z,8.59
2017-04-21T00:04:23.388Z,8.52
2017-04-21T00:05:03.842Z,8.45
2017-04-21T00:05:44.361Z,8.47
2017-04-21T00:06:24.835Z,8.45
2017-04-21T00:07:05.357Z,8.45
2017-04-21T00:07:45.799Z,8.45
2017-04-21T00:08:26.328Z,8.58
2017-04-21T00:09:06.799Z,8.41
2017-04-21T00:09:47.306Z,8.48
2017-04-21T00:10:27.809Z,8.48
2017-04-21T00:11:08.298Z,8.48
2017-04-21T00:11:48.804Z,8.44
2017-04-21T00:12:29.287Z,8.41
2017-04-21T00:13:09.886Z,8.4
2017-04-21T00:13:50.269Z,8.38
2017-04-21T00:14:30.776Z,8.41
2017-04-21T00:15:11.274Z,8.38
2017-04-21T00:15:51.780Z,8.4
2017-04-21T00:16:32.270Z,8.41
2017-04-21T00:17:12.793Z,8.38
2017-04-21T00:17:53.299Z,8.43
2017-04-21T00:18:33.755Z,8.3
2017-04-21T00:19:14.276Z,8.43
2017-04-21T00:19:54.719Z,8.33
2017-04-21T00:20:35.248Z,8.41
2017-04-21T00:21:15.731Z,8.36
2017-04-21T00:21:56.228Z,8.29
2017-04-21T00:22:36.738Z,8.19
2017-04-21T00:23:17.256Z,8.19
2017-04-21T00:23:57.754Z,8.25
2017-04-21T00:24:38.255Z,8.25
2017-04-21T00:25:18.730Z,8.28
2017-04-21T00:25:59.237Z,8.26
2017-04-21T00:26:39.738Z,8.28
2017-04-21T00:27:20.198Z,8.29
2017-04-21T00:28:00.686Z,8.29
2017-04-21T00:28:41.166Z,8.29
2017-04-21T00:29:21.664Z,8.28
2017-04-21T00:30:02.181Z,8.25
2017-04-21T00:30:42.681Z,8.25
2017-04-21T00:31:23.199Z,8.33
2017-04-21T00:32:03.667Z,8.28
2017-04-21T00:32:44.184Z,8.26
2017-04-21T00:33:24.663Z,8.25
2017-04-21T00:34:05.186Z,8.26
2017-04-21T00:34:45.673Z,8.25
2017-04-21T00:35:26.171Z,8.29
2017-04-21T00:37:14.159Z,8.28
2017-04-21T00:37:54.670Z,8.25
2017-04-21T00:38:35.200Z,8.25
2017-04-21T00:39:15.686Z,8.25
2017-04-21T00:39:56.202Z,8.16
2017-04-21T00:40:36.725Z,8.3
2017-04-21T00:41:17.223Z,8.3
2017-04-21T00:41:57.729Z,8.22
2017-04-21T00:42:38.258Z,8.22
2017-04-21T00:43:18.765Z,8.16
2017-04-21T00:43:59.261Z,8.22
2017-04-21T00:44:39.769Z,8.12
2017-04-21T00:45:20.247Z,8.16
2017-04-21T00:46:00.744Z,8.2
2017-04-21T00:46:41.237Z,8.15
2017-04-21T00:47:21.738Z,8.1
2017-04-21T00:48:02.228Z,8.1
2017-04-21T00:48:42.748Z,8.11
2017-04-21T00:49:23.219Z,8.07
2017-04-21T00:50:03.697Z,8.12
2017-04-21T00:50:44.177Z,8.16
2017-04-21T00:51:24.695Z,8.22
2017-04-21T00:52:05.163Z,8.15
2017-04-21T00:52:45.657Z,8.15
2017-04-21T00:53:26.145Z,8.04
2017-04-21T00:54:06.638Z,8.05
2017-04-21T00:54:47.156Z,8.11
2017-04-21T00:55:27.692Z,8.07
2017-04-21T00:56:08.174Z,8.08
2017-04-21T00:56:48.678Z,8.2
2017-04-21T00:57:29.170Z,8
2017-04-21T00:58:09.666Z,8.11
2017-04-21T00:58:50.170Z,8.01
2017-04-21T00:59:30.663Z,8.08
2017-04-21T01:00:11.171Z,8.1
2017-04-21T01:00:51.650Z,8.11
2017-04-21T01:01:32.135Z,8.11
2017-04-21T01:02:12.655Z,8.04
2017-04-21T01:02:53.159Z,8.1
2017-04-21T01:03:33.670Z,8.07
2017-04-21T01:04:14.185Z,7.87
2017-04-21T01:04:54.669Z,7.93
2017-04-21T01:05:35.125Z,7.83
2017-04-21T01:06:15.635Z,8
2017-04-21T01:06:56.162Z,7.92
2017-04-21T01:07:36.654Z,7.87
2017-04-21T01:08:17.160Z,7.89
2017-04-21T01:08:57.669Z,7.75
2017-04-21T01:09:38.155Z,7.86
2017-04-21T01:10:18.656Z,7.89
2017-04-21T01:10:59.151Z,7.92
2017-04-21T01:11:39.699Z,8.01
2017-04-21T01:12:20.164Z,7.87
2017-04-21T01:13:00.665Z,7.87
2017-04-21T01:13:41.180Z,8
2017-04-21T01:14:21.713Z,7.85
2017-04-21T01:15:02.180Z,7.89
2017-04-21T01:15:42.834Z,7.85
2017-04-21T01:16:23.368Z,7.89
2017-04-21T01:17:03.823Z,7.89
2017-04-21T01:17:44.287Z,7.87
2017-04-21T01:18:24.798Z,7.89
2017-04-21T01:19:05.303Z,7.92
2017-04-21T01:19:45.816Z,7.93
2017-04-21T01:20:26.330Z,8.04
2017-04-21T01:21:06.818Z,7.92
2017-04-21T01:21:47.330Z,7.9
2017-04-21T01:22:27.796Z,7.98
2017-04-21T01:23:08.284Z,7.98
2017-04-21T01:23:48.791Z,8.08
2017-04-21T01:24:29.346Z,7.98
2017-04-21T01:25:09.821Z,7.9
2017-04-21T01:25:50.284Z,7.89
2017-04-21T01:26:30.802Z,8.02
2017-04-21T01:27:11.274Z,7.89
2017-04-21T01:27:51.795Z,7.82
2017-04-21T01:28:32.295Z,7.85
2017-04-21T01:29:12.787Z,7.71
2017-04-21T01:29:53.241Z,7.82
2017-04-21T01:30:33.746Z,7.77
2017-04-21T01:31:14.231Z,7.75
2017-04-21T01:31:54.718Z,7.69
2017-04-21T01:32:35.232Z,7.74
2017-04-21T01:33:15.732Z,7.83
2017-04-21T01:33:56.251Z,7.83
2017-04-21T01:34:36.740Z,7.72
2017-04-21T01:35:17.263Z,7.64
2017-04-21T01:35:57.832Z,7.79
2017-04-21T01:36:38.289Z,7.75
2017-04-21T01:37:18.810Z,7.79
2017-04-21T01:37:59.295Z,7.71
2017-04-21T01:38:39.801Z,7.83
2017-04-21T01:39:20.300Z,7.86
2017-04-21T01:40:00.811Z,7.86
2017-04-21T01:40:41.333Z,7.86
2017-04-21T01:41:21.831Z,7.92
2017-04-21T01:42:02.277Z,7.98
2017-04-21T01:42:42.799Z,7.89
2017-04-21T01:43:23.281Z,7.89
2017-04-21T01:44:03.794Z,7.87
2017-04-21T01:44:44.286Z,7.98
2017-04-21T01:45:24.783Z,7.87
2017-04-21T01:46:05.282Z,8.02
2017-04-21T01:46:45.796Z,8.02
2017-04-21T01:47:26.292Z,7.97
2017-04-21T01:48:06.805Z,8.01
2017-04-21T01:48:47.303Z,8.04
2017-04-21T01:49:27.803Z,7.86
2017-04-21T01:50:08.307Z,8.04
2017-04-21T01:50:48.770Z,8.04
2017-04-21T01:51:29.285Z,8.01
2017-04-21T01:52:09.729Z,7.92
2017-04-21T01:52:50.191Z,8.02
2017-04-21T01:53:30.722Z,7.97
2017-04-21T01:54:11.160Z,8.05
2017-04-21T01:54:51.696Z,8.05
2017-04-21T01:55:32.173Z,8
2017-04-21T01:56:12.643Z,8.05
2017-04-21T01:56:53.165Z,8
2017-04-21T01:57:33.668Z,7.89
2017-04-21T01:58:14.182Z,7.72
2017-04-21T01:58:54.677Z,7.82
2017-04-21T01:59:35.199Z,7.97
2017-04-21T02:00:15.680Z,7.9
2017-04-21T02:00:56.158Z,7.9
2017-04-21T02:01:36.675Z,8.01
2017-04-21T02:02:17.138Z,7.89
2017-04-21T02:02:57.678Z,7.92
2017-04-21T02:03:38.127Z,7.83
2017-04-21T02:04:18.649Z,7.79
2017-04-21T02:04:59.138Z,7.83
2017-04-21T02:05:39.641Z,7.85
2017-04-21T02:06:20.083Z,7.89
2017-04-21T02:07:00.604Z,7.89
2017-04-21T02:07:41.058Z,7.87
2017-04-21T02:08:21.562Z,7.93
2017-04-21T02:09:02.063Z,7.95
2017-04-21T02:09:42.557Z,8.01
2017-04-21T02:10:23.041Z,8.04
2017-04-21T02:11:03.577Z,7.89
2017-04-21T02:11:44.036Z,7.89
2017-04-21T02:12:24.532Z,7.92
2017-04-21T02:13:05.033Z,8.02
2017-04-21T02:13:45.551Z,7.83
2017-04-21T02:14:26.026Z,7.85
2017-04-21T02:15:06.521Z,7.86
2017-04-21T02:15:47.021Z,7.86
2017-04-21T02:16:27.515Z,7.9
2017-04-21T02:17:08.020Z,7.9
2017-04-21T02:17:48.522Z,7.87
2017-04-21T02:18:29.007Z,7.89
2017-04-21T02:19:09.493Z,7.82
2017-04-21T02:19:50.013Z,7.61
2017-04-21T02:20:30.518Z,7.61
2017-04-21T02:21:10.961Z,7.74
2017-04-21T02:21:51.470Z,7.68
2017-04-21T02:22:31.973Z,7.5
2017-04-21T02:23:12.474Z,7.57
2017-04-21T02:23:52.979Z,7.63
2017-04-21T02:24:33.463Z,7.64
2017-04-21T02:25:13.953Z,7.68
2017-04-21T02:25:54.459Z,7.68
2017-04-21T02:26:34.956Z,7.77
2017-04-21T02:27:15.452Z,7.72
2017-04-21T02:27:55.925Z,7.75
2017-04-21T02:28:36.416Z,7.86
2017-04-21T02:29:16.918Z,7.8
2017-04-21T02:29:57.431Z,7.8
2017-04-21T02:30:37.929Z,7.71
2017-04-21T02:31:18.426Z,7.72
2017-04-21T02:31:58.922Z,7.64
2017-04-21T02:32:39.429Z,7.64
2017-04-21T02:33:19.940Z,7.61
2017-04-21T02:34:00.469Z,7.53
2017-04-21T02:34:40.977Z,7.55
2017-04-21T02:35:21.481Z,7.67
2017-04-21T02:36:01.998Z,7.52
2017-04-21T02:36:42.461Z,7.68
2017-04-21T02:37:22.973Z,7.71
2017-04-21T02:38:03.484Z,7.6
2017-04-21T02:38:43.988Z,7.68
2017-04-21T02:39:24.496Z,7.58
2017-04-21T02:40:05.009Z,7.5
2017-04-21T02:40:45.497Z,7.67
2017-04-21T02:41:26.017Z,7.55
2017-04-21T02:42:06.538Z,7.64
2017-04-21T02:42:47.006Z,7.75
2017-04-21T02:43:27.496Z,7.79
2017-04-21T02:44:08.008Z,7.8
2017-04-21T02:44:48.512Z,7.8
2017-04-21T02:45:29.022Z,7.92
2017-04-21T02:46:09.627Z,7.86
2017-04-21T02:46:50.121Z,7.9
2017-04-21T02:47:30.615Z,7.82
2017-04-21T02:48:11.116Z,7.95
2017-04-21T02:48:51.598Z,7.9
2017-04-21T02:49:32.071Z,7.9
2017-04-21T02:50:12.540Z,7.85
2017-04-21T02:50:53.052Z,7.89
2017-04-21T02:51:33.578Z,7.89
2017-04-21T02:52:14.051Z,7.87
2017-04-21T02:52:54.551Z,8
2017-04-21T02:53:35.044Z,7.9
2017-04-21T02:54:15.547Z,8
2017-04-21T02:54:56.102Z,7.87
2017-04-21T02:55:36.558Z,7.8
2017-04-21T02:56:17.044Z,7.95
2017-04-21T02:56:57.556Z,7.93
2017-04-21T02:57:38.042Z,7.86
2017-04-21T02:58:18.569Z,7.79
2017-04-21T02:58:59.025Z,7.85
2017-04-21T02:59:39.545Z,7.9
2017-04-21T03:00:20.026Z,7.85
2017-04-21T03:01:00.534Z,7.86
2017-04-21T03:01:41.049Z,7.89
2017-04-21T03:02:21.591Z,7.89
2017-04-21T03:03:02.034Z,7.95
2017-04-21T03:03:42.533Z,8
2017-04-21T03:04:23.039Z,8.02
2017-04-21T03:05:03.549Z,8.08
2017-04-21T03:05:44.037Z,8.05
2017-04-21T03:06:24.547Z,8.08
2017-04-21T03:07:05.043Z,7.89
2017-04-21T03:07:45.546Z,8.04
2017-04-21T03:08:26.065Z,8.02
2017-04-21T03:09:06.553Z,7.97
2017-04-21T03:09:47.068Z,8.1
2017-04-21T03:10:27.574Z,8.05
2017-04-21T03:11:08.063Z,7.98
2017-04-21T03:11:48.565Z,7.98
2017-04-21T03:12:29.055Z,8.05
2017-04-21T03:13:09.573Z,8.05
2017-04-21T03:13:50.079Z,7.9
2017-04-21T03:14:30.562Z,7.89
2017-04-21T03:15:11.074Z,7.95
2017-04-21T03:15:51.569Z,7.67
2017-04-21T03:16:32.079Z,7.49
2017-04-21T03:17:12.587Z,7.48
2017-04-21T03:17:53.073Z,7.28
2017-04-21T03:18:33.572Z,7.45
2017-04-21T03:19:14.071Z,7.21
2017-04-21T03:19:54.585Z,7.1
2017-04-21T03:20:35.105Z,7.13
2017-04-21T03:21:15.610Z,6.97
2017-04-21T03:21:56.128Z,7.1
2017-04-21T03:22:36.605Z,6.98
2017-04-21T03:23:17.120Z,6.94
2017-04-21T03:23:57.649Z,6.94
2017-04-21T03:24:38.107Z,7.09
2017-04-21T03:25:18.646Z,7.16
2017-04-21T03:25:59.136Z,7.25
2017-04-21T03:26:39.614Z,7.17
2017-04-21T03:27:20.112Z,7.28
2017-04-21T03:28:00.624Z,7.34
2017-04-21T03:28:41.135Z,7.35
2017-04-21T03:29:21.631Z,7.46
2017-04-21T03:30:02.148Z,7.5
2017-04-21T03:30:42.664Z,7.57
2017-04-21T03:31:23.182Z,7.55
2017-04-21T03:32:03.705Z,7.46
2017-04-21T03:32:44.167Z,7.45
2017-04-21T03:33:24.661Z,7.42
2017-04-21T03:34:05.174Z,7.37
2017-04-21T03:34:45.674Z,7.31
2017-04-21T03:35:26.163Z,7.24
2017-04-21T03:36:06.656Z,7.31
2017-04-21T03:36:47.172Z,7.32
2017-04-21T03:37:27.637Z,7.32
2017-04-21T03:38:08.148Z,7.4
2017-04-21T03:38:48.653Z,7.45
2017-04-21T03:39:29.151Z,7.46
2017-04-21T03:40:09.654Z,7.53
2017-04-21T03:40:50.156Z,7.61
2017-04-21T03:41:30.668Z,7.68
2017-04-21T03:42:11.198Z,7.69
2017-04-21T03:42:51.668Z,7.52
2017-04-21T03:43:32.183Z,7.53
2017-04-21T03:44:12.698Z,7.46
2017-04-21T03:44:53.201Z,7.3
2017-04-21T03:45:33.721Z,7.03
2017-04-21T03:46:14.222Z,6.95
2017-04-21T03:46:54.736Z,6.89
2017-04-21T03:47:35.246Z,6.84
2017-04-21T03:48:15.738Z,6.76
2017-04-21T03:48:56.363Z,6.8
2017-04-21T03:49:36.851Z,6.69
2017-04-21T03:50:17.316Z,6.69
2017-04-21T03:50:57.816Z,6.67
2017-04-21T03:51:38.322Z,6.87
2017-04-21T03:52:18.808Z,6.81
2017-04-21T03:52:59.320Z,6.81
2017-04-21T03:53:39.800Z,6.97
2017-04-21T03:54:20.286Z,7.09
2017-04-21T03:55:00.778Z,7.1
2017-04-21T03:55:41.310Z,7.25
2017-04-21T03:56:21.761Z,7.37
2017-04-21T03:57:02.260Z,7.3
2017-04-21T03:57:42.747Z,7.17
2017-04-21T03:58:23.234Z,7.1
2017-04-21T03:59:03.725Z,7.02
2017-04-21T03:59:44.218Z,6.88
2017-04-21T04:00:24.722Z,6.76
2017-04-21T04:01:05.227Z,6.84
2017-04-21T04:01:45.718Z,6.95
2017-04-21T04:02:26.204Z,7.07
2017-04-21T04:03:06.701Z,7.13
2017-04-21T04:03:47.202Z,7.09
2017-04-21T04:04:27.718Z,7.23
2017-04-21T04:05:08.200Z,7.34
2017-04-21T04:05:48.745Z,7.43
2017-04-21T04:06:29.289Z,7.39
2017-04-21T04:07:09.766Z,7.45
2017-04-21T04:07:50.267Z,7.52
2017-04-21T04:08:30.777Z,7.52
2017-04-21T04:09:11.258Z,7.6
2017-04-21T04:09:51.728Z,7.67
2017-04-21T04:10:32.215Z,7.53
2017-04-21T04:11:12.773Z,7.69
2017-04-21T04:11:53.238Z,7.72
2017-04-21T04:12:33.702Z,7.8
2017-04-21T04:13:14.149Z,7.87
2017-04-21T04:13:54.671Z,7.98
2017-04-21T04:14:35.138Z,7.9
2017-04-21T04:15:15.631Z,8
2017-04-21T04:15:56.148Z,8.02
2017-04-21T04:16:36.588Z,7.9
2017-04-21T04:17:17.107Z,7.98
2017-04-21T04:17:57.554Z,8
2017-04-21T04:18:38.086Z,8.12
2017-04-21T04:19:18.522Z,8.11
2017-04-21T04:19:59.063Z,8.05
2017-04-21T04:20:39.568Z,8.1
2017-04-21T04:21:20.095Z,8.11
2017-04-21T04:22:00.551Z,8.11
2017-04-21T04:22:41.046Z,8.11
2017-04-21T04:23:21.519Z,8.12
2017-04-21T04:24:02.014Z,8.08
2017-04-21T04:24:42.500Z,8
2017-04-21T04:25:23.057Z,7.92
2017-04-21T04:26:03.594Z,7.85
2017-04-21T04:26:44.039Z,7.72
2017-04-21T04:27:24.516Z,7.68
2017-04-21T04:28:05.006Z,7.49
2017-04-21T04:28:45.496Z,7.46
2017-04-21T04:29:26.014Z,7.45
2017-04-21T04:30:06.485Z,7.28
2017-04-21T04:30:46.980Z,7.12
2017-04-21T04:31:27.489Z,6.99
2017-04-21T04:32:07.992Z,7.03
2017-04-21T04:32:48.477Z,6.8
2017-04-21T04:33:28.990Z,6.85
2017-04-21T04:34:09.457Z,6.92
2017-04-21T04:34:49.959Z,6.85
2017-04-21T04:35:30.450Z,6.89
2017-04-21T04:36:10.949Z,7.03
2017-04-21T04:36:51.447Z,7.1
2017-04-21T04:37:31.956Z,7.12
2017-04-21T04:38:12.419Z,7.15
2017-04-21T04:38:52.952Z,7.24
2017-04-21T04:39:33.430Z,7.13
2017-04-21T04:40:13.941Z,7.13
2017-04-21T04:40:54.471Z,7.16
2017-04-21T04:41:34.941Z,7.25
2017-04-21T04:42:15.430Z,7.17
2017-04-21T04:42:55.932Z,7.23
2017-04-21T04:43:36.457Z,7.27
2017-04-21T04:44:16.958Z,7.39
2017-04-21T04:44:57.464Z,7.43
2017-04-21T04:45:37.955Z,7.48
2017-04-21T04:46:18.472Z,7.48
2017-04-21T04:46:58.966Z,7.42
2017-04-21T04:47:39.482Z,7.34
2017-04-21T04:48:19.958Z,7.32
2017-04-21T04:49:00.474Z,7.42
2017-04-21T04:49:40.999Z,7.4
2017-04-21T04:50:21.491Z,7.34
2017-04-21T04:51:02.036Z,7.35
2017-04-21T04:51:42.483Z,7.52
2017-04-21T04:52:23.012Z,7.68
2017-04-21T04:53:03.501Z,7.68
2017-04-21T04:53:44.027Z,7.8
2017-04-21T04:54:24.527Z,7.85
2017-04-21T04:55:05.021Z,7.93
2017-04-21T04:55:45.529Z,7.87
2017-04-21T04:56:25.987Z,7.79
2017-04-21T04:57:06.504Z,7.8
2017-04-21T04:57:47.016Z,7.82
2017-04-21T04:58:27.502Z,7.82
2017-04-21T04:59:07.979Z,7.58
2017-04-21T04:59:48.486Z,7.64
2017-04-21T05:00:28.974Z,7.5
2017-04-21T05:01:09.466Z,7.68
2017-04-21T05:01:49.947Z,7.72
2017-04-21T05:02:30.439Z,7.71
2017-04-21T05:03:10.910Z,7.92
2017-04-21T05:03:51.400Z,7.93
2017-04-21T05:04:31.877Z,7.92
2017-04-21T05:05:12.374Z,8.01
2017-04-21T05:05:52.874Z,8.05
2017-04-21T05:06:33.359Z,7.86
2017-04-21T05:07:13.885Z,7.93
2017-04-21T05:07:54.332Z,8.01
2017-04-21T05:08:34.837Z,7.93
2017-04-21T05:09:15.353Z,7.89
2017-04-21T05:09:55.786Z,7.87
2017-04-21T05:10:36.298Z,7.95
2017-04-21T05:11:16.774Z,7.98
2017-04-21T05:11:57.265Z,7.86
2017-04-21T05:12:37.729Z,7.87
2017-04-21T05:13:18.206Z,8.02
2017-04-21T05:13:58.703Z,8.08
2017-04-21T05:14:39.207Z,8.1
2017-04-21T05:15:19.772Z,8.1
2017-04-21T05:16:00.240Z,8.07
2017-04-21T05:16:40.703Z,8.22
2017-04-21T05:17:21.271Z,8.11
2017-04-21T05:18:01.688Z,8.1
2017-04-21T05:18:42.232Z,8.07
2017-04-21T05:19:22.726Z,8.07
2017-04-21T05:20:03.458Z,8.08
2017-04-21T05:20:43.959Z,8.01
2017-04-21T05:21:24.455Z,8
2017-04-21T05:22:05.041Z,7.95
2017-04-21T05:22:45.460Z,7.89
2017-04-21T05:23:25.972Z,7.93
2017-04-21T05:24:06.440Z,7.95
2017-04-21T05:24:46.916Z,7.97
2017-04-21T05:25:27.645Z,8.01
2017-04-21T05:26:08.237Z,7.98
2017-04-21T05:26:48.680Z,7.93
2017-04-21T05:27:29.134Z,7.93
2017-04-21T05:28:09.728Z,7.8
2017-04-21T05:28:50.171Z,7.77
2017-04-21T05:29:30.620Z,7.87
2017-04-21T05:30:11.203Z,8.08
2017-04-21T05:30:52.158Z,8.08
2017-04-21T05:31:32.678Z,8.08
2017-04-21T05:32:13.143Z,8.08
2017-04-21T05:32:53.715Z,8.11
2017-04-21T05:33:34.172Z,7.97
2017-04-21T05:34:14.629Z,8.22
2017-04-21T05:34:55.123Z,8.02
2017-04-21T05:35:35.657Z,8.2
2017-04-21T05:36:16.115Z,8.05
2017-04-21T05:36:56.584Z,8.15
2017-04-21T05:37:37.080Z,8.22
2017-04-21T05:38:17.577Z,8.18
2017-04-21T05:38:58.057Z,8.07
2017-04-21T05:39:38.568Z,8.1
2017-04-21T05:40:19.047Z,8.07
2017-04-21T05:40:59.538Z,8.23
2017-04-21T05:41:40.004Z,8.16
2017-04-21T05:42:20.526Z,8.25
2017-04-21T05:43:01.121Z,8.33
2017-04-21T05:43:41.536Z,8.43
2017-04-21T05:44:22.026Z,8.38
2017-04-21T05:45:02.591Z,8.41
2017-04-21T05:45:43.082Z,8.4
2017-04-21T05:46:23.626Z,8.33
2017-04-21T05:47:04.059Z,8.25
2017-04-21T05:47:44.539Z,8.34
2017-04-21T05:48:25.011Z,8.33
2017-04-21T05:49:05.570Z,8.3
2017-04-21T05:49:46.032Z,8.43
2017-04-21T05:50:26.750Z,8.3
2017-04-21T05:51:07.327Z,8.4
2017-04-21T05:51:47.794Z,8.43
2017-04-21T05:52:28.408Z,8.5
2017-04-21T05:53:14.382Z,8.62
2017-04-21T05:53:54.888Z,8.74
2017-04-21T05:54:35.349Z,8.76
2017-04-21T05:55:15.825Z,8.84
2017-04-21T05:55:56.583Z,8.95
2017-04-21T05:56:37.899Z,8.83
2017-04-21T05:57:18.387Z,8.68
2017-04-21T05:57:58.959Z,8.68
2017-04-21T05:58:39.385Z,8.77
2017-04-21T05:59:19.915Z,8.83
2017-04-21T06:00:00.390Z,8.95
2017-04-21T06:00:40.882Z,8.92
2017-04-21T06:01:21.295Z,8.83
2017-04-21T06:02:01.793Z,8.84
2017-04-21T06:02:42.311Z,8.81
2017-04-21T06:03:22.762Z,8.73
2017-04-21T06:04:03.343Z,8.63
2017-04-21T06:04:43.770Z,8.66
2017-04-21T06:05:24.258Z,8.68
2017-04-21T06:06:04.772Z,8.68
2017-04-21T06:06:45.265Z,8.62
2017-04-21T06:07:25.860Z,8.65
2017-04-21T06:08:06.274Z,8.59
2017-04-21T06:08:46.763Z,8.5
2017-04-21T06:09:27.259Z,8.55
2017-04-21T06:10:07.783Z,8.61
2017-04-21T06:10:48.296Z,8.63
2017-04-21T06:11:28.754Z,8.66
2017-04-21T06:13:22.439Z,8.68
2017-04-21T06:14:02.785Z,8.66
2017-04-21T06:14:43.647Z,8.63
2017-04-21T06:15:24.381Z,8.8
2017-04-21T06:16:04.843Z,8.87
2017-04-21T06:16:45.396Z,8.91
2017-04-21T06:17:26.068Z,8.95
2017-04-21T06:18:06.590Z,8.95
2017-04-21T06:18:47.357Z,9.04
2017-04-21T06:19:27.860Z,9.14
2017-04-21T06:20:08.347Z,9.33
2017-04-21T06:20:48.846Z,9.4
2017-04-21T06:21:29.381Z,9.51
2017-04-21T06:22:09.893Z,9.68
2017-04-21T06:22:50.644Z,9.93
2017-04-21T06:23:31.025Z,10.15
2017-04-21T06:24:11.505Z,10.42
2017-04-21T06:24:52.043Z,10.48
2017-04-21T06:25:32.574Z,10.34
2017-04-21T06:26:12.991Z,10.52
2017-04-21T06:26:53.519Z,10.61
2017-04-21T06:27:34.163Z,10.52
2017-04-21T06:28:14.563Z,10.48
2017-04-21T06:28:55.149Z,10.68
2017-04-21T06:29:35.620Z,10.61
2017-04-21T06:30:16.125Z,10.6
2017-04-21T06:30:56.682Z,10.63
2017-04-21T06:31:37.122Z,10.53
2017-04-21T06:32:17.766Z,10.34
2017-04-21T06:32:58.200Z,10.38
2017-04-21T06:33:38.663Z,10.36
2017-04-21T06:34:19.134Z,10.36
2017-04-21T06:34:59.653Z,10.3
2017-04-21T06:35:40.221Z,10.32
2017-04-21T06:36:20.853Z,10.61
2017-04-21T06:37:01.374Z,10.76
2017-04-21T06:37:42.143Z,10.78
2017-04-21T06:38:22.651Z,11
2017-04-21T06:39:03.222Z,11.35
2017-04-21T06:39:43.818Z,11.43
2017-04-21T06:40:24.352Z,11.42
2017-04-21T06:41:04.851Z,11.39
2017-04-21T06:41:45.295Z,11.49
2017-04-21T06:42:25.902Z,11.67
2017-04-21T06:43:06.381Z,11.69
2017-04-21T06:43:46.874Z,11.62
2017-04-21T06:44:27.830Z,11.64
2017-04-21T06:45:08.376Z,11.65
2017-04-21T06:45:48.878Z,11.69
2017-04-21T06:46:29.373Z,11.64
2017-04-21T06:47:09.853Z,11.55
2017-04-21T06:47:52.350Z,11.29
2017-04-21T06:48:32.960Z,11.29
2017-04-21T06:49:13.443Z,11.33
2017-04-21T06:49:54.116Z,11.19
2017-04-21T06:50:34.427Z,11.04
2017-04-21T06:51:15.011Z,11.04
2017-04-21T06:51:55.619Z,11.1
2017-04-21T06:52:38.347Z,11.06
2017-04-21T06:53:18.956Z,11.09
2017-04-21T06:54:00.429Z,11.19
2017-04-21T06:54:41.239Z,10.97
2017-04-21T06:55:21.849Z,11.02
2017-04-21T06:56:02.826Z,11.11
2017-04-21T06:56:43.310Z,11.06
2017-04-21T06:57:23.856Z,10.82
2017-04-21T06:58:04.443Z,10.81
2017-04-21T06:58:44.993Z,10.79
2017-04-21T06:59:25.422Z,10.74
2017-04-21T07:00:05.938Z,10.78
2017-04-21T07:00:46.562Z,10.84
2017-04-21T07:01:27.146Z,10.79
2017-04-21T07:02:08.049Z,10.82
2017-04-21T07:02:48.548Z,10.84
2017-04-21T07:03:29.275Z,10.86
2017-04-21T07:04:10.149Z,10.91
2017-04-21T07:04:50.563Z,11.07
2017-04-21T07:05:31.391Z,11.24
2017-04-21T07:06:12.026Z,11.36
2017-04-21T07:06:52.661Z,11.35
2017-04-21T07:07:33.121Z,11.35
2017-04-21T07:08:13.769Z,11.36
2017-04-21T07:08:54.834Z,11.42
2017-04-21T07:09:35.647Z,11.54
2017-04-21T07:10:16.225Z,11.64
2017-04-21T07:10:56.905Z,11.88
2017-04-21T07:11:37.813Z,12.01
2017-04-21T07:12:18.755Z,12.35
2017-04-21T07:12:59.387Z,12.49
2017-04-21T07:15:13.057Z,12.7
2017-04-21T07:15:53.725Z,12.59
2017-04-21T07:19:09.784Z,13.14
2017-04-21T07:19:48.561Z,12.97
2017-04-21T07:20:31.236Z,13.07
2017-04-21T07:21:11.608Z,13.04
2017-04-21T07:21:54.851Z,13.1
2017-04-21T07:24:04.690Z,13.01
2017-04-21T07:24:52.283Z,13.03
2017-04-21T07:25:32.930Z,13.05
2017-04-21T07:26:13.710Z,13.12
2017-04-21T07:26:54.373Z,13.12
2017-04-21T07:27:34.923Z,13.22
2017-04-21T07:28:15.716Z,13.3
2017-04-21T07:28:56.263Z,13.45
2017-04-21T07:29:36.974Z,13.51
2017-04-21T07:30:17.658Z,13.55
2017-04-21T07:30:58.158Z,13.54
2017-04-21T07:31:38.835Z,13.52
2017-04-21T07:32:19.368Z,13.46
2017-04-21T07:33:00.761Z,13.44
2017-04-21T07:33:41.378Z,13.38
2017-04-21T07:34:21.950Z,13.36
2017-04-21T07:35:02.396Z,13.32
2017-04-21T07:36:23.374Z,13.12
2017-04-21T07:37:03.864Z,13.2
2017-04-21T07:37:44.634Z,13.15
2017-04-21T07:38:25.288Z,13.1
2017-04-21T07:39:05.737Z,12.96
2017-04-21T07:40:26.758Z,13.01
2017-04-21T07:41:47.810Z,13.2
2017-04-21T07:42:28.419Z,13.3
2017-04-21T07:43:08.987Z,13.32
2017-04-21T07:43:49.466Z,13.39
2017-04-21T07:44:29.958Z,13.46
2017-04-21T07:45:10.544Z,13.66
2017-04-21T07:45:51.034Z,13.49
2017-04-21T07:46:31.639Z,13.6
2017-04-21T07:47:12.223Z,13.64
2017-04-21T07:47:52.831Z,13.55
2017-04-21T07:48:33.267Z,13.59
2017-04-21T07:49:13.778Z,13.55
2017-04-21T07:49:54.234Z,13.66
2017-04-21T07:50:34.709Z,13.59
2017-04-21T07:51:15.228Z,13.14
2017-04-21T07:51:55.656Z,13.28
2017-04-21T07:52:36.206Z,13.33
2017-04-21T07:53:16.686Z,13.36
2017-04-21T07:53:57.166Z,13.41
2017-04-21T07:55:51.338Z,13.45
2017-04-21T07:56:31.868Z,13.6
2017-04-21T07:58:45.279Z,13.66
2017-04-21T07:59:26.438Z,13.92
2017-04-21T08:00:06.950Z,13.88
2017-04-21T08:00:47.484Z,13.89
2017-04-21T08:01:27.917Z,13.92
2017-04-21T08:02:08.422Z,13.87
2017-04-21T08:02:48.924Z,13.91
2017-04-21T08:03:30.168Z,13.84
2017-04-21T08:04:10.651Z,13.91
2017-04-21T08:04:51.163Z,13.95
2017-04-21T08:05:31.638Z,13.87
2017-04-21T08:06:12.334Z,13.95
2017-04-21T08:06:52.930Z,13.87
2017-04-21T08:07:33.336Z,13.85
2017-04-21T08:08:14.645Z,13.87
2017-04-21T08:08:55.102Z,14.07
2017-04-21T08:09:36.450Z,14.12
2017-04-21T08:10:16.891Z,14.02
2017-04-21T08:10:57.352Z,13.69
2017-04-21T08:11:37.986Z,13.67
2017-04-21T08:12:18.479Z,13.69
2017-04-21T08:12:58.904Z,13.73
2017-04-21T08:13:39.359Z,13.57
2017-04-21T08:14:19.843Z,13.71
2017-04-21T08:15:00.425Z,13.89
2017-04-21T08:15:40.910Z,14.06
2017-04-21T08:16:21.464Z,14
2017-04-21T08:17:01.942Z,13.99
2017-04-21T08:17:42.355Z,14.04
2017-04-21T08:18:22.920Z,14.04
2017-04-21T08:19:03.396Z,14.18
2017-04-21T08:19:43.942Z,14.21
2017-04-21T08:20:24.321Z,14.18
2017-04-21T08:21:04.944Z,14.14
2017-04-21T08:21:45.332Z,14.03
2017-04-21T08:22:25.880Z,14.09
2017-04-21T08:23:07.159Z,14.06
2017-04-21T08:23:48.058Z,14.06
2017-04-21T08:24:31.374Z,14.09
2017-04-21T08:25:10.993Z,14.18
2017-04-21T08:25:52.387Z,14.24
2017-04-21T08:26:33.106Z,14.27
2017-04-21T08:27:13.591Z,14.36
2017-04-21T08:27:54.382Z,14.29
2017-04-21T08:28:35.032Z,14.28
2017-04-21T08:29:15.917Z,14.04
2017-04-21T08:29:56.035Z,14.2
2017-04-21T08:32:37.526Z,14.28
2017-04-21T08:33:20.187Z,14.22
2017-04-21T08:34:00.686Z,14.03
2017-04-21T08:37:10.748Z,14.35
2017-04-21T08:37:54.704Z,14.51
2017-04-21T08:38:34.457Z,14.61
2017-04-21T08:39:17.359Z,14.55
2017-04-21T08:40:02.369Z,14.47
2017-04-21T08:40:44.468Z,14.27
2017-04-21T08:41:25.430Z,14.25
2017-04-21T08:42:06.223Z,14.28
2017-04-21T08:42:48.761Z,14.36
2017-04-21T08:43:30.261Z,14.39
2017-04-21T08:44:11.603Z,14.39
2017-04-21T08:44:53.712Z,14.32
2017-04-21T08:45:34.421Z,14.42
2017-04-21T08:46:14.729Z,14.17
2017-04-21T08:46:55.490Z,13.97
2017-04-21T08:47:36.135Z,13.85
2017-04-21T08:48:17.576Z,14
2017-04-21T08:54:23.526Z,14.54
2017-04-21T08:57:27.082Z,14.64
2017-04-21T08:58:12.037Z,14.64
2017-04-21T08:58:52.957Z,14.69
2017-04-21T08:59:33.170Z,14.68
2017-04-21T09:00:13.794Z,14.73
2017-04-21T09:00:54.788Z,14.78
2017-04-21T09:01:35.482Z,14.89
2017-04-21T09:02:16.723Z,14.88
2017-04-21T09:02:58.102Z,14.94
2017-04-21T09:03:39.868Z,14.94
2017-04-21T09:04:20.656Z,14.92
2017-04-21T09:05:01.105Z,15.06
2017-04-21T09:05:41.911Z,15.06
2017-04-21T09:06:22.752Z,15.07
2017-04-21T09:07:03.146Z,14.99
2017-04-21T09:07:43.919Z,15.07
2017-04-21T09:08:24.278Z,15.07
2017-04-21T09:09:04.919Z,14.84
2017-04-21T09:09:45.596Z,14.62
2017-04-21T09:10:26.174Z,14.75
2017-04-21T09:11:06.747Z,14.83
2017-04-21T09:11:47.214Z,14.98
2017-04-21T09:12:27.927Z,15.1
2017-04-21T09:13:08.658Z,15.16
2017-04-21T09:13:49.307Z,15.06
2017-04-21T09:14:30.007Z,15.01
2017-04-21T09:15:12.073Z,15.21
2017-04-21T09:15:54.366Z,15.06
2017-04-21T09:16:35.100Z,14.96
2017-04-21T09:17:15.455Z,14.89
2017-04-21T09:17:55.934Z,14.84
2017-04-21T09:18:36.482Z,14.91
2017-04-21T09:19:17.001Z,15.07
2017-04-21T09:19:57.534Z,14.99
2017-04-21T09:20:37.959Z,15.06
2017-04-21T09:21:18.421Z,14.64
2017-04-21T09:21:59.337Z,14.65
2017-04-21T09:22:39.902Z,14.73